Terminal Aerodrome Forecast
Issued by NWS

Home | Current Version | Previous Version | Text Only | Print | Product List | Glossary Off
Versions: 1 2 3 4 5 6 7 8 9 10 11 12 13 14 15 16 17 18

000
FTUS42 KMHX 130500
TAFOAJ
TAF
KOAJ 130532Z 1306/1406 17002KT P6SM SKC
      TEMPO 1308/1312 5SM BR SCT002
     FM131500 18012G20KT P6SM SCT060
     FM140300 18005KT P6SM SCT020
      AMD LTD TO CLD VIS AND WIND=

USA.gov is the U.S. government's official web portal to all federal, state and local government web resources and services.